sensor_id;sensor_type;location;lat;lon;timestamp;pressure;altitude;pressure_sealevel;temperature;humidity
30875;BME280;17581;43.222;27.924;2023-03-25T00:01:03;100598.47;;;10.57;73.98
30875;BME280;17581;43.222;27.924;2023-03-25T00:03:31;100599.56;;;10.55;74.35
30875;BME280;17581;43.222;27.924;2023-03-25T00:05:59;100596.66;;;10.35;74.59
30875;BME280;17581;43.222;27.924;2023-03-25T00:08:25;100593.34;;;10.43;74.57
30875;BME280;17581;43.222;27.924;2023-03-25T00:10:57;100586.50;;;10.50;75.06
30875;BME280;17581;43.222;27.924;2023-03-25T00:13:23;100591.00;;;10.50;75.55
30875;BME280;17581;43.222;27.924;2023-03-25T00:15:51;100583.31;;;10.56;76.34
30875;BME280;17581;43.222;27.924;2023-03-25T00:18:19;100583.75;;;10.61;77.37
30875;BME280;17581;43.222;27.924;2023-03-25T00:20:48;100588.63;;;10.67;77.64
30875;BME280;17581;43.222;27.924;2023-03-25T00:23:16;100584.00;;;10.69;78.21
30875;BME280;17581;43.222;27.924;2023-03-25T00:25:41;100572.84;;;10.74;78.41
30875;BME280;17581;43.222;27.924;2023-03-25T00:28:10;100576.28;;;10.76;78.85
30875;BME280;17581;43.222;27.924;2023-03-25T00:30:37;100571.38;;;10.81;79.46
30875;BME280;17581;43.222;27.924;2023-03-25T00:33:02;100566.72;;;10.83;79.18
30875;BME280;17581;43.222;27.924;2023-03-25T00:35:28;100555.59;;;10.76;79.54
30875;BME280;17581;43.222;27.924;2023-03-25T00:37:54;100552.66;;;10.79;80.53
30875;BME280;17581;43.222;27.924;2023-03-25T00:40:29;100556.81;;;10.83;80.55
30875;BME280;17581;43.222;27.924;2023-03-25T00:42:59;100564.16;;;10.81;80.91
30875;BME280;17581;43.222;27.924;2023-03-25T00:45:25;100566.97;;;10.80;80.96
30875;BME280;17581;43.222;27.924;2023-03-25T00:47:50;100545.59;;;10.67;81.94
30875;BME280;17581;43.222;27.924;2023-03-25T00:50:16;100551.47;;;10.72;82.17
30875;BME280;17581;43.222;27.924;2023-03-25T00:52:41;100550.72;;;10.70;81.71
30875;BME280;17581;43.222;27.924;2023-03-25T00:55:07;100549.91;;;10.70;82.25
30875;BME280;17581;43.222;27.924;2023-03-25T00:57:33;100553.41;;;10.70;82.41
30875;BME280;17581;43.222;27.924;2023-03-25T00:59:58;100540.47;;;10.64;82.46
30875;BME280;17581;43.222;27.924;2023-03-25T01:02:24;100549.28;;;10.66;82.51
30875;BME280;17581;43.222;27.924;2023-03-25T01:04:49;100544.19;;;10.63;82.87
30875;BME280;17581;43.222;27.924;2023-03-25T01:07:18;100545.28;;;10.61;82.84
30875;BME280;17581;43.222;27.924;2023-03-25T01:09:45;100539.06;;;10.60;82.89
30875;BME280;17581;43.222;27.924;2023-03-25T01:12:12;100538.78;;;10.63;82.57
30875;BME280;17581;43.222;27.924;2023-03-25T01:14:38;100537.78;;;10.64;83.03
30875;BME280;17581;43.222;27.924;2023-03-25T01:17:04;100528.16;;;10.62;83.19
30875;BME280;17581;43.222;27.924;2023-03-25T01:19:30;100516.06;;;10.56;82.96
30875;BME280;17581;43.222;27.924;2023-03-25T01:21:56;100515.34;;;10.54;83.30
30875;BME280;17581;43.222;27.924;2023-03-25T01:24:21;100508.97;;;10.55;83.70
30875;BME280;17581;43.222;27.924;2023-03-25T01:26:47;100514.69;;;10.62;83.76
30875;BME280;17581;43.222;27.924;2023-03-25T01:29:14;100512.41;;;10.57;83.86
30875;BME280;17581;43.222;27.924;2023-03-25T01:31:40;100506.78;;;10.60;84.24
30875;BME280;17581;43.222;27.924;2023-03-25T01:34:05;100507.94;;;10.67;84.40
30875;BME280;17581;43.222;27.924;2023-03-25T01:36:32;100502.81;;;10.75;84.01
30875;BME280;17581;43.222;27.924;2023-03-25T01:38:58;100512.69;;;10.75;84.43
30875;BME280;17581;43.222;27.924;2023-03-25T01:41:25;100502.06;;;10.73;84.46
30875;BME280;17581;43.222;27.924;2023-03-25T01:46:40;100509.56;;;10.70;85.80
30875;BME280;17581;43.222;27.924;2023-03-25T01:49:11;100514.94;;;10.70;86.44
30875;BME280;17581;43.222;27.924;2023-03-25T01:51:42;100507.94;;;10.67;86.68
30875;BME280;17581;43.222;27.924;2023-03-25T01:54:09;100505.50;;;10.64;86.97
30875;BME280;17581;43.222;27.924;2023-03-25T01:56:39;100505.41;;;10.66;87.88
30875;BME280;17581;43.222;27.924;2023-03-25T01:59:07;100509.16;;;10.74;87.35
30875;BME280;17581;43.222;27.924;2023-03-25T02:01:35;100505.00;;;10.70;87.65
30875;BME280;17581;43.222;27.924;2023-03-25T02:04:01;100500.38;;;10.72;87.66
30875;BME280;17581;43.222;27.924;2023-03-25T02:06:45;100501.59;;;10.68;88.26
30875;BME280;17581;43.222;27.924;2023-03-25T02:09:15;100504.63;;;10.75;87.76
30875;BME280;17581;43.222;27.924;2023-03-25T02:11:42;100501.59;;;10.68;87.79
30875;BME280;17581;43.222;27.924;2023-03-25T02:14:14;100488.28;;;10.67;87.69
30875;BME280;17581;43.222;27.924;2023-03-25T02:16:50;100493.00;;;10.74;88.41
30875;BME280;17581;43.222;27.924;2023-03-25T02:19:33;100481.53;;;10.72;88.36
30875;BME280;17581;43.222;27.924;2023-03-25T02:22:30;100494.72;;;10.75;87.75
30875;BME280;17581;43.222;27.924;2023-03-25T02:25:21;100476.28;;;10.71;88.29
30875;BME280;17581;43.222;27.924;2023-03-25T02:36:36;100473.31;;;10.53;88.80
30875;BME280;17581;43.222;27.924;2023-03-25T02:39:17;100480.13;;;10.57;89.21
30875;BME280;17581;43.222;27.924;2023-03-25T02:42:03;100485.28;;;10.49;88.95
30875;BME280;17581;43.222;27.924;2023-03-25T02:44:32;100465.28;;;10.42;89.50
30875;BME280;17581;43.222;27.924;2023-03-25T02:47:02;100474.75;;;10.57;89.68
30875;BME280;17581;43.222;27.924;2023-03-25T02:49:33;100471.94;;;10.59;89.96
30875;BME280;17581;43.222;27.924;2023-03-25T02:52:13;100467.34;;;10.70;89.30
30875;BME280;17581;43.222;27.924;2023-03-25T02:54:42;100468.69;;;10.76;89.00
30875;BME280;17581;43.222;27.924;2023-03-25T02:57:11;100460.22;;;10.80;88.73
30875;BME280;17581;43.222;27.924;2023-03-25T02:59:39;100461.66;;;10.84;88.23
30875;BME280;17581;43.222;27.924;2023-03-25T03:02:08;100462.19;;;10.78;88.22
30875;BME280;17581;43.222;27.924;2023-03-25T03:04:52;100452.66;;;10.74;87.83
30875;BME280;17581;43.222;27.924;2023-03-25T03:07:28;100462.91;;;10.80;88.03
30875;BME280;17581;43.222;27.924;2023-03-25T03:10:11;100459.88;;;10.74;88.47
30875;BME280;17581;43.222;27.924;2023-03-25T03:16:12;100467.84;;;10.75;88.53
30875;BME280;17581;43.222;27.924;2023-03-25T03:25:00;100460.72;;;10.74;88.18
30875;BME280;17581;43.222;27.924;2023-03-25T03:30:16;100435.59;;;10.64;88.64
30875;BME280;17581;43.222;27.924;2023-03-25T03:33:05;100439.13;;;10.65;89.04
30875;BME280;17581;43.222;27.924;2023-03-25T03:35:37;100439.03;;;10.66;88.62
30875;BME280;17581;43.222;27.924;2023-03-25T03:38:09;100427.06;;;10.59;88.37
30875;BME280;17581;43.222;27.924;2023-03-25T03:40:39;100437.97;;;10.58;89.04
30875;BME280;17581;43.222;27.924;2023-03-25T03:43:08;100430.09;;;10.66;89.41
30875;BME280;17581;43.222;27.924;2023-03-25T03:45:41;100424.19;;;10.72;88.91
30875;BME280;17581;43.222;27.924;2023-03-25T03:48:13;100422.22;;;10.74;88.47
30875;BME280;17581;43.222;27.924;2023-03-25T03:50:46;100429.91;;;10.78;88.49
30875;BME280;17581;43.222;27.924;2023-03-25T03:53:28;100431.56;;;10.70;88.26
30875;BME280;17581;43.222;27.924;2023-03-25T03:56:07;100428.19;;;10.77;88.85
30875;BME280;17581;43.222;27.924;2023-03-25T03:58:37;100434.75;;;10.64;89.32
30875;BME280;17581;43.222;27.924;2023-03-25T04:01:49;100432.38;;;10.70;89.90
30875;BME280;17581;43.222;27.924;2023-03-25T04:04:18;100436.06;;;10.69;90.04
30875;BME280;17581;43.222;27.924;2023-03-25T04:09:35;100433.84;;;10.74;89.85
30875;BME280;17581;43.222;27.924;2023-03-25T04:12:15;100435.28;;;10.78;89.45
30875;BME280;17581;43.222;27.924;2023-03-25T04:14:43;100438.69;;;10.80;89.34
30875;BME280;17581;43.222;27.924;2023-03-25T04:17:09;100440.94;;;10.75;89.29
30875;BME280;17581;43.222;27.924;2023-03-25T04:19:34;100439.63;;;10.70;90.00
30875;BME280;17581;43.222;27.924;2023-03-25T04:22:01;100438.94;;;10.77;89.51
30875;BME280;17581;43.222;27.924;2023-03-25T04:24:27;100436.72;;;10.82;89.60
30875;BME280;17581;43.222;27.924;2023-03-25T04:26:57;100441.59;;;10.88;89.42
30875;BME280;17581;43.222;27.924;2023-03-25T04:29:24;100441.72;;;10.66;90.13
30875;BME280;17581;43.222;27.924;2023-03-25T04:31:50;100440.25;;;10.83;90.48
30875;BME280;17581;43.222;27.924;2023-03-25T04:34:19;100443.56;;;10.86;90.23
30875;BME280;17581;43.222;27.924;2023-03-25T04:36:44;100437.19;;;10.87;89.66
30875;BME280;17581;43.222;27.924;2023-03-25T04:39:11;100434.78;;;10.84;90.08
30875;BME280;17581;43.222;27.924;2023-03-25T04:41:37;100444.84;;;10.92;89.98
30875;BME280;17581;43.222;27.924;2023-03-25T04:44:03;100437.38;;;10.96;89.76
30875;BME280;17581;43.222;27.924;2023-03-25T04:46:32;100438.22;;;10.96;89.58
30875;BME280;17581;43.222;27.924;2023-03-25T04:48:57;100426.44;;;10.87;89.29
30875;BME280;17581;43.222;27.924;2023-03-25T04:51:24;100439.09;;;10.97;89.80
30875;BME280;17581;43.222;27.924;2023-03-25T04:53:50;100434.94;;;10.92;89.96
30875;BME280;17581;43.222;27.924;2023-03-25T04:56:17;100415.06;;;10.84;90.26
30875;BME280;17581;43.222;27.924;2023-03-25T04:58:44;100427.75;;;10.93;89.77
30875;BME280;17581;43.222;27.924;2023-03-25T05:01:27;100422.09;;;10.96;89.86
30875;BME280;17581;43.222;27.924;2023-03-25T05:04:01;100426.03;;;10.92;89.98
30875;BME280;17581;43.222;27.924;2023-03-25T05:06:35;100423.53;;;10.79;90.11
30875;BME280;17581;43.222;27.924;2023-03-25T05:09:04;100427.16;;;10.89;90.12
30875;BME280;17581;43.222;27.924;2023-03-25T05:11:33;100434.84;;;10.94;90.30
30875;BME280;17581;43.222;27.924;2023-03-25T05:13:58;100427.16;;;10.89;89.91
30875;BME280;17581;43.222;27.924;2023-03-25T05:16:24;100421.63;;;10.70;90.16
30875;BME280;17581;43.222;27.924;2023-03-25T05:18:49;100433.19;;;10.82;90.35
30875;BME280;17581;43.222;27.924;2023-03-25T05:21:15;100433.56;;;10.77;90.54
30875;BME280;17581;43.222;27.924;2023-03-25T05:23:41;100432.06;;;10.84;90.55
30875;BME280;17581;43.222;27.924;2023-03-25T05:26:08;100432.34;;;10.81;91.06
30875;BME280;17581;43.222;27.924;2023-03-25T05:28:34;100409.38;;;10.77;90.37
30875;BME280;17581;43.222;27.924;2023-03-25T05:31:00;100429.38;;;10.84;91.02
30875;BME280;17581;43.222;27.924;2023-03-25T05:33:33;100428.84;;;10.90;91.11
30875;BME280;17581;43.222;27.924;2023-03-25T05:35:58;100425.75;;;10.95;90.04
30875;BME280;17581;43.222;27.924;2023-03-25T05:38:24;100417.16;;;10.80;90.00
30875;BME280;17581;43.222;27.924;2023-03-25T05:40:50;100435.69;;;10.95;89.92
30875;BME280;17581;43.222;27.924;2023-03-25T05:43:16;100434.50;;;10.87;90.21
30875;BME280;17581;43.222;27.924;2023-03-25T05:45:42;100444.16;;;10.90;90.10
30875;BME280;17581;43.222;27.924;2023-03-25T05:48:09;100425.50;;;10.98;89.48
30875;BME280;17581;43.222;27.924;2023-03-25T05:50:36;100436.06;;;11.11;89.21
30875;BME280;17581;43.222;27.924;2023-03-25T05:53:02;100443.03;;;10.92;90.18
30875;BME280;17581;43.222;27.924;2023-03-25T05:55:29;100424.94;;;10.95;89.92
30875;BME280;17581;43.222;27.924;2023-03-25T05:57:54;100448.13;;;10.96;90.16
30875;BME280;17581;43.222;27.924;2023-03-25T06:00:21;100434.41;;;10.99;90.03
30875;BME280;17581;43.222;27.924;2023-03-25T06:02:47;100446.63;;;11.03;89.72
30875;BME280;17581;43.222;27.924;2023-03-25T06:05:14;100444.28;;;11.09;89.35
30875;BME280;17581;43.222;27.924;2023-03-25T06:07:41;100443.41;;;11.09;89.90
30875;BME280;17581;43.222;27.924;2023-03-25T06:10:09;100420.66;;;11.13;89.83
30875;BME280;17581;43.222;27.924;2023-03-25T06:12:36;100423.59;;;11.10;89.52
30875;BME280;17581;43.222;27.924;2023-03-25T06:15:07;100408.81;;;11.04;89.14
30875;BME280;17581;43.222;27.924;2023-03-25T06:17:33;100418.59;;;11.05;89.18
30875;BME280;17581;43.222;27.924;2023-03-25T06:20:09;100407.53;;;10.78;90.30
30875;BME280;17581;43.222;27.924;2023-03-25T06:22:42;100410.63;;;10.94;90.85
30875;BME280;17581;43.222;27.924;2023-03-25T06:25:10;100412.97;;;10.87;90.86
30875;BME280;17581;43.222;27.924;2023-03-25T06:27:36;100417.38;;;10.88;90.85
30875;BME280;17581;43.222;27.924;2023-03-25T06:30:09;100427.59;;;10.74;90.43
30875;BME280;17581;43.222;27.924;2023-03-25T06:32:36;100424.44;;;10.48;90.91
30875;BME280;17581;43.222;27.924;2023-03-25T06:35:03;100432.00;;;10.54;91.54
30875;BME280;17581;43.222;27.924;2023-03-25T06:37:29;100422.00;;;10.45;91.87
30875;BME280;17581;43.222;27.924;2023-03-25T06:39:55;100419.00;;;10.27;92.50
30875;BME280;17581;43.222;27.924;2023-03-25T06:42:23;100421.44;;;10.30;93.12
30875;BME280;17581;43.222;27.924;2023-03-25T06:44:49;100428.69;;;10.30;93.67
30875;BME280;17581;43.222;27.924;2023-03-25T06:47:15;100428.25;;;10.46;94.27
30875;BME280;17581;43.222;27.924;2023-03-25T06:49:40;100416.13;;;10.51;93.90
30875;BME280;17581;43.222;27.924;2023-03-25T06:52:06;100413.28;;;10.53;93.69
30875;BME280;17581;43.222;27.924;2023-03-25T06:54:31;100411.88;;;10.49;93.09
30875;BME280;17581;43.222;27.924;2023-03-25T06:56:57;100428.00;;;10.69;93.32
30875;BME280;17581;43.222;27.924;2023-03-25T06:59:23;100432.91;;;10.64;92.41
30875;BME280;17581;43.222;27.924;2023-03-25T07:01:49;100451.22;;;10.70;92.49
30875;BME280;17581;43.222;27.924;2023-03-25T07:04:14;100442.94;;;10.83;92.18
30875;BME280;17581;43.222;27.924;2023-03-25T07:06:40;100438.84;;;11.00;92.09
30875;BME280;17581;43.222;27.924;2023-03-25T07:09:07;100444.81;;;11.03;91.31
30875;BME280;17581;43.222;27.924;2023-03-25T07:11:33;100443.47;;;11.18;91.08
30875;BME280;17581;43.222;27.924;2023-03-25T07:13:58;100443.53;;;11.07;89.20
30875;BME280;17581;43.222;27.924;2023-03-25T07:16:25;100460.09;;;11.03;88.63
30875;BME280;17581;43.222;27.924;2023-03-25T07:18:50;100447.75;;;10.79;88.66
30875;BME280;17581;43.222;27.924;2023-03-25T07:21:17;100443.03;;;10.92;89.07
30875;BME280;17581;43.222;27.924;2023-03-25T07:23:43;100445.72;;;10.92;88.89
30875;BME280;17581;43.222;27.924;2023-03-25T07:26:08;100431.13;;;10.95;89.34
30875;BME280;17581;43.222;27.924;2023-03-25T07:28:34;100434.25;;;10.90;89.22
30875;BME280;17581;43.222;27.924;2023-03-25T07:31:05;100428.84;;;10.90;89.31
30875;BME280;17581;43.222;27.924;2023-03-25T07:33:30;100433.72;;;10.97;89.15
30875;BME280;17581;43.222;27.924;2023-03-25T07:35:56;100437.84;;;11.01;89.00
30875;BME280;17581;43.222;27.924;2023-03-25T07:38:21;100413.25;;;10.84;88.58
30875;BME280;17581;43.222;27.924;2023-03-25T07:40:47;100415.44;;;10.79;89.32
30875;BME280;17581;43.222;27.924;2023-03-25T07:43:12;100427.41;;;10.86;89.54
30875;BME280;17581;43.222;27.924;2023-03-25T07:45:37;100433.44;;;11.00;89.81
30875;BME280;17581;43.222;27.924;2023-03-25T07:48:03;100434.38;;;11.10;89.74
30875;BME280;17581;43.222;27.924;2023-03-25T07:50:28;100434.91;;;11.04;88.53
30875;BME280;17581;43.222;27.924;2023-03-25T07:52:54;100426.63;;;10.96;88.18
30875;BME280;17581;43.222;27.924;2023-03-25T07:55:20;100435.44;;;10.98;87.80
30875;BME280;17581;43.222;27.924;2023-03-25T07:57:46;100422.03;;;10.86;88.42
30875;BME280;17581;43.222;27.924;2023-03-25T08:00:12;100424.00;;;10.84;89.16
30875;BME280;17581;43.222;27.924;2023-03-25T08:02:38;100425.75;;;10.95;88.66
30875;BME280;17581;43.222;27.924;2023-03-25T08:05:04;100433.97;;;10.93;89.03
30875;BME280;17581;43.222;27.924;2023-03-25T08:07:31;100424.97;;;11.04;89.41
30875;BME280;17581;43.222;27.924;2023-03-25T08:09:56;100436.06;;;11.11;88.96
30875;BME280;17581;43.222;27.924;2023-03-25T08:12:22;100432.22;;;11.04;88.75
30875;BME280;17581;43.222;27.924;2023-03-25T08:14:47;100422.75;;;11.09;87.87
30875;BME280;17581;43.222;27.924;2023-03-25T08:17:13;100427.91;;;11.01;87.72
30875;BME280;17581;43.222;27.924;2023-03-25T08:19:38;100421.19;;;11.07;88.84
30875;BME280;17581;43.222;27.924;2023-03-25T08:22:03;100416.78;;;11.06;88.30
30875;BME280;17581;43.222;27.924;2023-03-25T08:24:29;100416.50;;;11.09;87.99
30875;BME280;17581;43.222;27.924;2023-03-25T08:26:57;100419.41;;;10.96;87.92
30875;BME280;17581;43.222;27.924;2023-03-25T08:29:25;100416.44;;;10.99;88.72
30875;BME280;17581;43.222;27.924;2023-03-25T08:31:51;100405.44;;;10.81;89.26
30875;BME280;17581;43.222;27.924;2023-03-25T08:34:19;100407.78;;;10.96;89.17
30875;BME280;17581;43.222;27.924;2023-03-25T08:36:45;100403.78;;;10.90;89.28
30875;BME280;17581;43.222;27.924;2023-03-25T08:39:11;100398.81;;;10.85;88.99
30875;BME280;17581;43.222;27.924;2023-03-25T08:41:37;100400.13;;;10.91;89.00
30875;BME280;17581;43.222;27.924;2023-03-25T08:44:04;100402.13;;;10.99;88.80
30875;BME280;17581;43.222;27.924;2023-03-25T08:46:29;100413.63;;;11.01;88.00
30875;BME280;17581;43.222;27.924;2023-03-25T08:48:55;100407.13;;;11.03;88.61
30875;BME280;17581;43.222;27.924;2023-03-25T08:51:21;100395.78;;;11.00;88.60
30875;BME280;17581;43.222;27.924;2023-03-25T08:53:46;100400.91;;;11.03;88.81
30875;BME280;17581;43.222;27.924;2023-03-25T08:56:12;100394.41;;;10.84;89.42
30875;BME280;17581;43.222;27.924;2023-03-25T08:58:37;100401.16;;;11.00;89.83
30875;BME280;17581;43.222;27.924;2023-03-25T09:01:04;100407.13;;;11.03;89.20
30875;BME280;17581;43.222;27.924;2023-03-25T09:03:29;100393.47;;;10.95;89.48
30875;BME280;17581;43.222;27.924;2023-03-25T09:05:55;100393.00;;;11.11;89.82
30875;BME280;17581;43.222;27.924;2023-03-25T09:08:20;100379.00;;;11.17;89.04
30875;BME280;17581;43.222;27.924;2023-03-25T09:10:46;100393.00;;;11.11;89.06
30875;BME280;17581;43.222;27.924;2023-03-25T09:13:11;100385.69;;;11.22;88.93
30875;BME280;17581;43.222;27.924;2023-03-25T09:15:37;100381.78;;;11.36;88.56
30875;BME280;17581;43.222;27.924;2023-03-25T09:18:03;100384.75;;;11.33;88.50
30875;BME280;17581;43.222;27.924;2023-03-25T09:20:29;100388.34;;;11.43;88.41
30875;BME280;17581;43.222;27.924;2023-03-25T09:22:56;100386.91;;;11.39;88.45
30875;BME280;17581;43.222;27.924;2023-03-25T09:25:21;100390.63;;;11.57;88.96
30875;BME280;17581;43.222;27.924;2023-03-25T09:27:47;100384.66;;;11.54;87.75
30875;BME280;17581;43.222;27.924;2023-03-25T09:30:13;100380.50;;;11.70;87.26
30875;BME280;17581;43.222;27.924;2023-03-25T09:32:40;100386.78;;;11.90;86.25
30875;BME280;17581;43.222;27.924;2023-03-25T09:35:06;100379.72;;;11.98;85.77
30875;BME280;17581;43.222;27.924;2023-03-25T09:37:32;100370.63;;;11.99;85.15
30875;BME280;17581;43.222;27.924;2023-03-25T09:39:57;100369.47;;;11.73;85.32
30875;BME280;17581;43.222;27.924;2023-03-25T09:47:30;100370.94;;;12.16;85.25
30875;BME280;17581;43.222;27.924;2023-03-25T09:50:00;100357.00;;;12.20;83.96
30875;BME280;17581;43.222;27.924;2023-03-25T09:52:35;100358.44;;;12.24;82.60
30875;BME280;17581;43.222;27.924;2023-03-25T09:55:08;100357.31;;;12.08;83.33
30875;BME280;17581;43.222;27.924;2023-03-25T09:57:43;100354.47;;;11.99;83.15
30875;BME280;17581;43.222;27.924;2023-03-25T10:00:16;100357.03;;;12.11;83.99
30875;BME280;17581;43.222;27.924;2023-03-25T10:02:50;100349.66;;;12.13;83.77
30875;BME280;17581;43.222;27.924;2023-03-25T10:05:43;100345.69;;;12.07;83.46
30875;BME280;17581;43.222;27.924;2023-03-25T10:15:57;100343.25;;;12.04;82.67
30875;BME280;17581;43.222;27.924;2023-03-25T10:26:47;100317.75;;;11.98;82.71
30875;BME280;17581;43.222;27.924;2023-03-25T10:29:32;100315.03;;;11.98;82.85
30875;BME280;17581;43.222;27.924;2023-03-25T10:32:05;100313.63;;;11.94;83.39
30875;BME280;17581;43.222;27.924;2023-03-25T10:34:42;100311.47;;;11.88;83.36
30875;BME280;17581;43.222;27.924;2023-03-25T10:37:12;100303.41;;;11.88;83.30
30875;BME280;17581;43.222;27.924;2023-03-25T10:39:42;100280.94;;;11.69;84.02
30875;BME280;17581;43.222;27.924;2023-03-25T10:42:23;100293.19;;;11.82;84.44
30875;BME280;17581;43.222;27.924;2023-03-25T10:44:51;100289.00;;;11.69;84.64
30875;BME280;17581;43.222;27.924;2023-03-25T10:47:19;100279.53;;;11.74;84.64
30875;BME280;17581;43.222;27.924;2023-03-25T10:49:47;100279.53;;;11.65;84.61
30875;BME280;17581;43.222;27.924;2023-03-25T10:52:14;100276.16;;;11.72;84.78
30875;BME280;17581;43.222;27.924;2023-03-25T10:54:43;100277.81;;;11.54;84.83
30875;BME280;17581;43.222;27.924;2023-03-25T10:57:17;100273.28;;;11.64;84.91
30875;BME280;17581;43.222;27.924;2023-03-25T11:00:02;100276.84;;;11.65;85.07
30875;BME280;17581;43.222;27.924;2023-03-25T11:02:31;100267.31;;;11.61;85.11
30875;BME280;17581;43.222;27.924;2023-03-25T11:05:03;100259.66;;;11.46;85.36
30875;BME280;17581;43.222;27.924;2023-03-25T11:07:36;100261.91;;;11.51;85.92
30875;BME280;17581;43.222;27.924;2023-03-25T11:12:36;100255.28;;;11.55;85.80
30875;BME280;17581;43.222;27.924;2023-03-25T11:15:01;100245.75;;;11.51;85.63
30875;BME280;17581;43.222;27.924;2023-03-25T11:17:27;100240.94;;;11.45;85.78
30875;BME280;17581;43.222;27.924;2023-03-25T11:19:59;100230.47;;;11.52;85.79
30875;BME280;17581;43.222;27.924;2023-03-25T11:22:30;100238.38;;;11.53;85.06
30875;BME280;17581;43.222;27.924;2023-03-25T11:25:02;100230.75;;;11.58;85.00
30875;BME280;17581;43.222;27.924;2023-03-25T11:27:29;100224.50;;;11.48;85.50
30875;BME280;17581;43.222;27.924;2023-03-25T11:30:06;100218.97;;;11.59;86.17
30875;BME280;17581;43.222;27.924;2023-03-25T11:32:38;100204.09;;;11.55;85.71
30875;BME280;17581;43.222;27.924;2023-03-25T11:35:17;100203.94;;;11.47;85.52
30875;BME280;17581;43.222;27.924;2023-03-25T11:37:52;100215.00;;;11.25;86.56
30875;BME280;17581;43.222;27.924;2023-03-25T11:40:19;100214.84;;;11.36;87.60
30875;BME280;17581;43.222;27.924;2023-03-25T11:43:07;100216.81;;;11.24;87.66
30875;BME280;17581;43.222;27.924;2023-03-25T11:45:35;100205.78;;;11.27;87.56
30875;BME280;17581;43.222;27.924;2023-03-25T11:48:14;100205.19;;;11.24;88.10
30875;BME280;17581;43.222;27.924;2023-03-25T11:50:49;100193.16;;;11.28;88.21
30875;BME280;17581;43.222;27.924;2023-03-25T11:53:19;100184.53;;;11.43;87.69
30875;BME280;17581;43.222;27.924;2023-03-25T11:55:49;100191.59;;;11.35;87.70
30875;BME280;17581;43.222;27.924;2023-03-25T11:58:18;100196.41;;;11.41;87.48
30875;BME280;17581;43.222;27.924;2023-03-25T12:00:49;100195.44;;;11.42;87.14
30875;BME280;17581;43.222;27.924;2023-03-25T12:03:20;100184.25;;;11.46;86.88
30875;BME280;17581;43.222;27.924;2023-03-25T12:06:16;100180.56;;;11.57;86.76
30875;BME280;17581;43.222;27.924;2023-03-25T12:08:56;100176.72;;;11.69;87.12
30875;BME280;17581;43.222;27.924;2023-03-25T12:11:29;100177.28;;;11.63;85.79
30875;BME280;17581;43.222;27.924;2023-03-25T12:14:18;100182.28;;;11.68;85.97
30875;BME280;17581;43.222;27.924;2023-03-25T12:25:07;100178.56;;;11.59;86.57
30875;BME280;17581;43.222;27.924;2023-03-25T12:27:39;100170.66;;;11.67;86.89
30875;BME280;17581;43.222;27.924;2023-03-25T12:35:27;100169.81;;;11.76;85.40
30875;BME280;17581;43.222;27.924;2023-03-25T12:43:10;100143.56;;;11.88;84.71
30875;BME280;17581;43.222;27.924;2023-03-25T12:59:32;100137.38;;;12.15;83.32
30875;BME280;17581;43.222;27.924;2023-03-25T13:02:39;100135.41;;;12.17;82.74
30875;BME280;17581;43.222;27.924;2023-03-25T13:05:43;100122.66;;;12.09;82.87
30875;BME280;17581;43.222;27.924;2023-03-25T13:08:19;100125.38;;;11.99;82.80
30875;BME280;17581;43.222;27.924;2023-03-25T13:10:55;100133.75;;;11.87;83.39
30875;BME280;17581;43.222;27.924;2023-03-25T13:13:24;100131.91;;;11.87;82.94
30875;BME280;17581;43.222;27.924;2023-03-25T13:16:12;100125.53;;;11.98;83.06
30875;BME280;17581;43.222;27.924;2023-03-25T13:19:05;100122.28;;;11.94;82.78
30875;BME280;17581;43.222;27.924;2023-03-25T13:21:36;100117.19;;;11.91;83.06
30875;BME280;17581;43.222;27.924;2023-03-25T13:24:09;100111.94;;;11.80;83.95
30875;BME280;17581;43.222;27.924;2023-03-25T13:26:39;100106.44;;;11.72;84.28
30875;BME280;17581;43.222;27.924;2023-03-25T13:31:48;100116.22;;;11.73;84.58
30875;BME280;17581;43.222;27.924;2023-03-25T13:34:30;100119.47;;;11.67;84.88
30875;BME280;17581;43.222;27.924;2023-03-25T13:42:09;100105.72;;;11.51;85.92
30875;BME280;17581;43.222;27.924;2023-03-25T13:44:39;100105.44;;;11.54;85.45
30875;BME280;17581;43.222;27.924;2023-03-25T13:52:15;100103.75;;;11.34;85.82
30875;BME280;17581;43.222;27.924;2023-03-25T13:54:47;100086.47;;;11.17;86.35
30875;BME280;17581;43.222;27.924;2023-03-25T14:06:50;100090.56;;;11.02;88.44
30875;BME280;17581;43.222;27.924;2023-03-25T14:12:22;100083.22;;;11.14;88.98
30875;BME280;17581;43.222;27.924;2023-03-25T14:15:10;100084.75;;;11.16;88.61
30875;BME280;17581;43.222;27.924;2023-03-25T14:17:38;100072.56;;;11.31;89.30
30875;BME280;17581;43.222;27.924;2023-03-25T14:20:07;100083.78;;;11.46;88.08
30875;BME280;17581;43.222;27.924;2023-03-25T14:22:43;100076.00;;;11.43;88.00
30875;BME280;17581;43.222;27.924;2023-03-25T14:27:56;100055.84;;;11.47;86.91
30875;BME280;17581;43.222;27.924;2023-03-25T14:30:26;100055.44;;;11.42;86.65
30875;BME280;17581;43.222;27.924;2023-03-25T14:32:56;100063.09;;;11.18;87.20
30875;BME280;17581;43.222;27.924;2023-03-25T14:54:13;100044.78;;;11.50;86.79
30875;BME280;17581;43.222;27.924;2023-03-25T14:59:16;100047.06;;;11.45;86.55
30875;BME280;17581;43.222;27.924;2023-03-25T15:01:44;100043.50;;;11.44;86.87
30875;BME280;17581;43.222;27.924;2023-03-25T15:04:14;100057.25;;;11.51;86.43
30875;BME280;17581;43.222;27.924;2023-03-25T15:06:46;100045.13;;;11.28;86.93